sensor_id;sensor_type;location;lat;lon;timestamp;P1;durP1;ratioP1;P2;durP2;ratioP2
12177;SDS011;6152;48.728;9.256;2024-01-07T00:02:18;26.10;;;14.73;;
12177;SDS011;6152;48.728;9.256;2024-01-07T00:04:44;24.95;;;14.07;;
12177;SDS011;6152;48.728;9.256;2024-01-07T00:07:10;25.45;;;14.50;;
12177;SDS011;6152;48.728;9.256;2024-01-07T00:09:37;27.02;;;14.82;;
12177;SDS011;6152;48.728;9.256;2024-01-07T00:12:03;23.10;;;14.07;;
12177;SDS011;6152;48.728;9.256;2024-01-07T00:14:29;24.73;;;14.20;;
12177;SDS011;6152;48.728;9.256;2024-01-07T00:16:55;24.73;;;13.65;;
12177;SDS011;6152;48.728;9.256;2024-01-07T00:19:21;25.92;;;14.07;;
12177;SDS011;6152;48.728;9.256;2024-01-07T00:21:47;27.55;;;15.02;;
12177;SDS011;6152;48.728;9.256;2024-01-07T00:24:14;24.70;;;13.63;;
12177;SDS011;6152;48.728;9.256;2024-01-07T00:26:41;24.17;;;14.52;;
12177;SDS011;6152;48.728;9.256;2024-01-07T00:29:07;24.60;;;12.85;;
12177;SDS011;6152;48.728;9.256;2024-01-07T00:31:33;25.25;;;13.18;;
12177;SDS011;6152;48.728;9.256;2024-01-07T00:33:59;24.80;;;14.23;;
12177;SDS011;6152;48.728;9.256;2024-01-07T00:36:25;21.63;;;13.15;;
12177;SDS011;6152;48.728;9.256;2024-01-07T00:38:51;26.77;;;14.35;;
12177;SDS011;6152;48.728;9.256;2024-01-07T00:41:17;23.92;;;13.82;;
12177;SDS011;6152;48.728;9.256;2024-01-07T00:43:43;23.60;;;14.07;;
12177;SDS011;6152;48.728;9.256;2024-01-07T00:46:09;24.45;;;13.23;;
12177;SDS011;6152;48.728;9.256;2024-01-07T00:48:35;24.15;;;13.43;;
12177;SDS011;6152;48.728;9.256;2024-01-07T00:51:01;24.30;;;14.07;;
12177;SDS011;6152;48.728;9.256;2024-01-07T00:53:28;23.88;;;13.98;;
12177;SDS011;6152;48.728;9.256;2024-01-07T00:55:54;23.92;;;13.15;;
12177;SDS011;6152;48.728;9.256;2024-01-07T00:58:20;25.50;;;14.25;;
12177;SDS011;6152;48.728;9.256;2024-01-07T01:00:46;20.48;;;12.85;;
12177;SDS011;6152;48.728;9.256;2024-01-07T01:03:13;25.15;;;14.40;;
12177;SDS011;6152;48.728;9.256;2024-01-07T01:05:39;24.67;;;13.05;;
12177;SDS011;6152;48.728;9.256;2024-01-07T01:08:05;25.65;;;13.32;;
12177;SDS011;6152;48.728;9.256;2024-01-07T01:10:31;23.65;;;12.50;;
12177;SDS011;6152;48.728;9.256;2024-01-07T01:12:57;21.85;;;12.88;;
12177;SDS011;6152;48.728;9.256;2024-01-07T01:15:23;21.85;;;12.60;;
12177;SDS011;6152;48.728;9.256;2024-01-07T01:17:49;23.00;;;12.82;;
12177;SDS011;6152;48.728;9.256;2024-01-07T01:20:15;25.90;;;13.65;;
12177;SDS011;6152;48.728;9.256;2024-01-07T01:22:41;25.17;;;13.60;;
12177;SDS011;6152;48.728;9.256;2024-01-07T01:25:07;22.02;;;13.07;;
12177;SDS011;6152;48.728;9.256;2024-01-07T01:27:35;24.13;;;13.57;;
12177;SDS011;6152;48.728;9.256;2024-01-07T01:30:01;26.60;;;14.05;;
12177;SDS011;6152;48.728;9.256;2024-01-07T01:32:28;21.73;;;13.32;;
12177;SDS011;6152;48.728;9.256;2024-01-07T01:34:54;22.58;;;13.00;;
12177;SDS011;6152;48.728;9.256;2024-01-07T01:37:20;25.23;;;12.85;;
12177;SDS011;6152;48.728;9.256;2024-01-07T01:39:46;19.83;;;12.05;;
12177;SDS011;6152;48.728;9.256;2024-01-07T01:42:12;22.00;;;13.05;;
12177;SDS011;6152;48.728;9.256;2024-01-07T01:44:39;24.23;;;12.88;;
12177;SDS011;6152;48.728;9.256;2024-01-07T01:47:06;22.38;;;12.02;;
12177;SDS011;6152;48.728;9.256;2024-01-07T01:49:33;22.80;;;12.40;;
12177;SDS011;6152;48.728;9.256;2024-01-07T01:52:01;23.45;;;13.05;;
12177;SDS011;6152;48.728;9.256;2024-01-07T01:54:28;21.95;;;12.63;;
12177;SDS011;6152;48.728;9.256;2024-01-07T01:56:54;23.38;;;12.30;;
12177;SDS011;6152;48.728;9.256;2024-01-07T01:59:20;21.45;;;12.50;;
12177;SDS011;6152;48.728;9.256;2024-01-07T02:01:46;22.83;;;13.00;;
12177;SDS011;6152;48.728;9.256;2024-01-07T02:04:13;23.23;;;12.55;;
12177;SDS011;6152;48.728;9.256;2024-01-07T02:06:40;22.40;;;12.50;;
12177;SDS011;6152;48.728;9.256;2024-01-07T02:09:06;24.15;;;13.25;;
12177;SDS011;6152;48.728;9.256;2024-01-07T02:11:32;22.38;;;12.35;;
12177;SDS011;6152;48.728;9.256;2024-01-07T02:13:58;22.45;;;13.13;;
12177;SDS011;6152;48.728;9.256;2024-01-07T02:16:25;22.30;;;13.00;;
12177;SDS011;6152;48.728;9.256;2024-01-07T02:18:51;23.92;;;12.98;;
12177;SDS011;6152;48.728;9.256;2024-01-07T02:21:17;23.58;;;13.25;;
12177;SDS011;6152;48.728;9.256;2024-01-07T02:23:43;21.10;;;12.57;;
12177;SDS011;6152;48.728;9.256;2024-01-07T02:26:09;24.83;;;13.73;;
12177;SDS011;6152;48.728;9.256;2024-01-07T02:28:35;22.70;;;12.13;;
12177;SDS011;6152;48.728;9.256;2024-01-07T02:31:01;21.70;;;13.30;;
12177;SDS011;6152;48.728;9.256;2024-01-07T02:33:27;22.20;;;12.90;;
12177;SDS011;6152;48.728;9.256;2024-01-07T02:35:55;28.02;;;13.43;;
12177;SDS011;6152;48.728;9.256;2024-01-07T02:38:22;24.23;;;13.30;;
12177;SDS011;6152;48.728;9.256;2024-01-07T02:40:48;23.55;;;13.70;;
12177;SDS011;6152;48.728;9.256;2024-01-07T02:43:14;23.55;;;13.55;;
12177;SDS011;6152;48.728;9.256;2024-01-07T02:45:40;21.88;;;13.18;;
12177;SDS011;6152;48.728;9.256;2024-01-07T02:48:06;23.73;;;13.23;;
12177;SDS011;6152;48.728;9.256;2024-01-07T02:50:32;27.65;;;12.80;;
12177;SDS011;6152;48.728;9.256;2024-01-07T02:52:58;23.23;;;13.38;;
12177;SDS011;6152;48.728;9.256;2024-01-07T02:55:24;25.05;;;13.82;;
12177;SDS011;6152;48.728;9.256;2024-01-07T02:57:50;26.85;;;14.05;;
12177;SDS011;6152;48.728;9.256;2024-01-07T03:00:16;25.38;;;13.55;;
12177;SDS011;6152;48.728;9.256;2024-01-07T03:02:43;25.20;;;13.32;;
12177;SDS011;6152;48.728;9.256;2024-01-07T03:05:09;26.63;;;14.70;;
12177;SDS011;6152;48.728;9.256;2024-01-07T03:07:37;29.60;;;15.23;;
12177;SDS011;6152;48.728;9.256;2024-01-07T03:10:05;25.38;;;14.25;;
12177;SDS011;6152;48.728;9.256;2024-01-07T03:12:31;25.73;;;14.18;;
12177;SDS011;6152;48.728;9.256;2024-01-07T03:14:57;24.67;;;14.65;;
12177;SDS011;6152;48.728;9.256;2024-01-07T03:17:23;26.13;;;15.20;;
12177;SDS011;6152;48.728;9.256;2024-01-07T03:19:49;27.40;;;15.20;;
12177;SDS011;6152;48.728;9.256;2024-01-07T03:22:15;25.30;;;14.90;;
12177;SDS011;6152;48.728;9.256;2024-01-07T03:24:41;24.75;;;15.07;;
12177;SDS011;6152;48.728;9.256;2024-01-07T03:27:08;27.38;;;14.43;;
12177;SDS011;6152;48.728;9.256;2024-01-07T03:29:34;25.92;;;14.95;;
12177;SDS011;6152;48.728;9.256;2024-01-07T03:32:01;24.13;;;13.82;;
12177;SDS011;6152;48.728;9.256;2024-01-07T03:34:27;25.73;;;14.50;;
12177;SDS011;6152;48.728;9.256;2024-01-07T03:36:53;26.80;;;13.73;;
12177;SDS011;6152;48.728;9.256;2024-01-07T03:39:19;26.45;;;15.32;;
12177;SDS011;6152;48.728;9.256;2024-01-07T03:41:45;23.58;;;14.63;;
12177;SDS011;6152;48.728;9.256;2024-01-07T03:44:11;24.73;;;14.25;;
12177;SDS011;6152;48.728;9.256;2024-01-07T03:46:37;25.00;;;14.07;;
12177;SDS011;6152;48.728;9.256;2024-01-07T03:49:03;23.90;;;13.38;;
12177;SDS011;6152;48.728;9.256;2024-01-07T03:51:29;21.05;;;13.85;;
12177;SDS011;6152;48.728;9.256;2024-01-07T03:53:56;23.52;;;13.38;;
12177;SDS011;6152;48.728;9.256;2024-01-07T03:56:22;23.15;;;13.93;;
12177;SDS011;6152;48.728;9.256;2024-01-07T03:58:48;22.05;;;13.25;;
12177;SDS011;6152;48.728;9.256;2024-01-07T04:01:17;23.77;;;14.50;;
12177;SDS011;6152;48.728;9.256;2024-01-07T04:03:43;20.20;;;12.98;;
12177;SDS011;6152;48.728;9.256;2024-01-07T04:06:09;19.38;;;13.30;;
12177;SDS011;6152;48.728;9.256;2024-01-07T04:08:35;24.63;;;13.35;;
12177;SDS011;6152;48.728;9.256;2024-01-07T04:11:02;22.77;;;13.68;;
12177;SDS011;6152;48.728;9.256;2024-01-07T04:13:28;25.33;;;13.75;;
12177;SDS011;6152;48.728;9.256;2024-01-07T04:15:54;22.48;;;12.98;;
12177;SDS011;6152;48.728;9.256;2024-01-07T04:18:20;21.90;;;13.10;;
12177;SDS011;6152;48.728;9.256;2024-01-07T04:20:46;19.33;;;12.10;;
12177;SDS011;6152;48.728;9.256;2024-01-07T04:23:12;20.83;;;13.52;;
12177;SDS011;6152;48.728;9.256;2024-01-07T04:25:38;22.52;;;14.57;;
12177;SDS011;6152;48.728;9.256;2024-01-07T04:28:07;22.80;;;12.95;;
12177;SDS011;6152;48.728;9.256;2024-01-07T04:30:34;21.08;;;13.63;;
12177;SDS011;6152;48.728;9.256;2024-01-07T04:33:00;20.10;;;12.98;;
12177;SDS011;6152;48.728;9.256;2024-01-07T04:35:27;22.23;;;13.13;;
12177;SDS011;6152;48.728;9.256;2024-01-07T04:37:53;19.70;;;12.77;;
12177;SDS011;6152;48.728;9.256;2024-01-07T04:40:19;18.45;;;13.02;;
12177;SDS011;6152;48.728;9.256;2024-01-07T04:42:45;21.73;;;12.73;;
12177;SDS011;6152;48.728;9.256;2024-01-07T04:45:11;22.92;;;13.68;;
12177;SDS011;6152;48.728;9.256;2024-01-07T04:47:37;21.75;;;13.07;;
12177;SDS011;6152;48.728;9.256;2024-01-07T04:50:03;19.38;;;12.52;;
12177;SDS011;6152;48.728;9.256;2024-01-07T04:52:30;20.50;;;12.35;;
12177;SDS011;6152;48.728;9.256;2024-01-07T04:54:56;20.60;;;13.60;;
12177;SDS011;6152;48.728;9.256;2024-01-07T04:57:22;21.48;;;12.30;;
12177;SDS011;6152;48.728;9.256;2024-01-07T04:59:50;17.73;;;11.75;;
12177;SDS011;6152;48.728;9.256;2024-01-07T05:02:17;21.58;;;13.73;;
12177;SDS011;6152;48.728;9.256;2024-01-07T05:04:43;18.67;;;12.65;;
12177;SDS011;6152;48.728;9.256;2024-01-07T05:07:09;23.30;;;12.90;;
12177;SDS011;6152;48.728;9.256;2024-01-07T05:09:35;22.38;;;13.55;;
12177;SDS011;6152;48.728;9.256;2024-01-07T05:12:01;20.98;;;12.48;;
12177;SDS011;6152;48.728;9.256;2024-01-07T05:14:28;23.00;;;13.25;;
12177;SDS011;6152;48.728;9.256;2024-01-07T05:16:54;19.92;;;12.35;;
12177;SDS011;6152;48.728;9.256;2024-01-07T05:19:20;20.60;;;12.25;;
12177;SDS011;6152;48.728;9.256;2024-01-07T05:21:46;20.30;;;11.93;;
12177;SDS011;6152;48.728;9.256;2024-01-07T05:24:12;18.52;;;11.18;;
12177;SDS011;6152;48.728;9.256;2024-01-07T05:26:39;16.52;;;10.70;;
12177;SDS011;6152;48.728;9.256;2024-01-07T05:29:07;18.35;;;11.38;;
12177;SDS011;6152;48.728;9.256;2024-01-07T05:31:33;18.48;;;11.43;;
12177;SDS011;6152;48.728;9.256;2024-01-07T05:33:59;17.08;;;10.85;;
12177;SDS011;6152;48.728;9.256;2024-01-07T05:36:25;18.13;;;12.18;;
12177;SDS011;6152;48.728;9.256;2024-01-07T05:38:51;19.60;;;11.73;;
12177;SDS011;6152;48.728;9.256;2024-01-07T05:41:17;18.27;;;12.20;;
12177;SDS011;6152;48.728;9.256;2024-01-07T05:43:43;21.45;;;12.23;;
12177;SDS011;6152;48.728;9.256;2024-01-07T05:46:09;19.25;;;11.10;;
12177;SDS011;6152;48.728;9.256;2024-01-07T05:51:10;20.67;;;11.32;;
12177;SDS011;6152;48.728;9.256;2024-01-07T05:53:36;18.63;;;10.93;;
12177;SDS011;6152;48.728;9.256;2024-01-07T05:56:02;16.95;;;10.68;;
12177;SDS011;6152;48.728;9.256;2024-01-07T05:58:29;19.05;;;11.90;;
12177;SDS011;6152;48.728;9.256;2024-01-07T06:00:55;17.35;;;10.98;;
12177;SDS011;6152;48.728;9.256;2024-01-07T06:03:22;18.80;;;11.25;;
12177;SDS011;6152;48.728;9.256;2024-01-07T06:05:48;17.48;;;10.88;;
12177;SDS011;6152;48.728;9.256;2024-01-07T06:08:14;21.00;;;10.98;;
12177;SDS011;6152;48.728;9.256;2024-01-07T06:10:40;20.20;;;11.23;;
12177;SDS011;6152;48.728;9.256;2024-01-07T06:13:06;17.23;;;10.43;;
12177;SDS011;6152;48.728;9.256;2024-01-07T06:15:32;17.67;;;10.15;;
12177;SDS011;6152;48.728;9.256;2024-01-07T06:17:59;19.33;;;10.02;;
12177;SDS011;6152;48.728;9.256;2024-01-07T06:20:25;16.77;;;11.02;;
12177;SDS011;6152;48.728;9.256;2024-01-07T06:22:51;17.35;;;10.20;;
12177;SDS011;6152;48.728;9.256;2024-01-07T06:25:17;18.33;;;10.90;;
12177;SDS011;6152;48.728;9.256;2024-01-07T06:27:43;17.05;;;10.30;;
12177;SDS011;6152;48.728;9.256;2024-01-07T06:30:09;17.67;;;10.45;;
12177;SDS011;6152;48.728;9.256;2024-01-07T06:32:36;16.15;;;10.48;;
12177;SDS011;6152;48.728;9.256;2024-01-07T06:35:02;16.38;;;10.40;;
12177;SDS011;6152;48.728;9.256;2024-01-07T06:37:29;18.73;;;11.23;;
12177;SDS011;6152;48.728;9.256;2024-01-07T06:39:55;19.50;;;11.40;;
12177;SDS011;6152;48.728;9.256;2024-01-07T06:42:23;18.70;;;11.40;;
12177;SDS011;6152;48.728;9.256;2024-01-07T06:44:49;17.00;;;10.70;;
12177;SDS011;6152;48.728;9.256;2024-01-07T06:47:15;18.03;;;11.07;;
12177;SDS011;6152;48.728;9.256;2024-01-07T06:49:41;20.80;;;12.10;;
12177;SDS011;6152;48.728;9.256;2024-01-07T06:52:08;19.37;;;11.30;;
12177;SDS011;6152;48.728;9.256;2024-01-07T06:54:34;16.93;;;11.00;;
12177;SDS011;6152;48.728;9.256;2024-01-07T06:57:00;16.70;;;11.40;;
12177;SDS011;6152;48.728;9.256;2024-01-07T06:59:26;17.60;;;10.77;;
12177;SDS011;6152;48.728;9.256;2024-01-07T07:01:52;19.63;;;11.20;;
12177;SDS011;6152;48.728;9.256;2024-01-07T07:04:20;17.30;;;11.48;;
12177;SDS011;6152;48.728;9.256;2024-01-07T07:06:47;18.80;;;12.30;;
12177;SDS011;6152;48.728;9.256;2024-01-07T07:09:13;17.20;;;11.07;;
12177;SDS011;6152;48.728;9.256;2024-01-07T07:11:40;19.05;;;11.57;;
12177;SDS011;6152;48.728;9.256;2024-01-07T07:14:06;16.95;;;11.02;;
12177;SDS011;6152;48.728;9.256;2024-01-07T07:16:32;20.38;;;10.80;;
12177;SDS011;6152;48.728;9.256;2024-01-07T07:18:58;19.13;;;12.50;;
12177;SDS011;6152;48.728;9.256;2024-01-07T07:21:24;18.73;;;11.38;;
12177;SDS011;6152;48.728;9.256;2024-01-07T07:23:52;19.08;;;10.98;;
12177;SDS011;6152;48.728;9.256;2024-01-07T07:26:18;19.55;;;11.85;;
12177;SDS011;6152;48.728;9.256;2024-01-07T07:28:44;16.88;;;11.93;;
12177;SDS011;6152;48.728;9.256;2024-01-07T07:31:11;18.08;;;12.00;;
12177;SDS011;6152;48.728;9.256;2024-01-07T07:33:40;17.92;;;10.93;;
12177;SDS011;6152;48.728;9.256;2024-01-07T07:36:07;20.50;;;12.40;;
12177;SDS011;6152;48.728;9.256;2024-01-07T07:38:33;16.75;;;11.57;;
12177;SDS011;6152;48.728;9.256;2024-01-07T07:40:59;18.80;;;11.93;;
12177;SDS011;6152;48.728;9.256;2024-01-07T07:43:26;18.15;;;11.75;;
12177;SDS011;6152;48.728;9.256;2024-01-07T07:45:52;21.50;;;12.38;;
12177;SDS011;6152;48.728;9.256;2024-01-07T07:48:18;19.33;;;12.13;;
12177;SDS011;6152;48.728;9.256;2024-01-07T07:50:45;17.05;;;11.98;;
12177;SDS011;6152;48.728;9.256;2024-01-07T07:53:11;16.52;;;11.18;;
12177;SDS011;6152;48.728;9.256;2024-01-07T07:55:37;20.45;;;12.05;;
12177;SDS011;6152;48.728;9.256;2024-01-07T07:58:03;15.90;;;11.57;;
12177;SDS011;6152;48.728;9.256;2024-01-07T08:00:29;18.25;;;11.80;;
12177;SDS011;6152;48.728;9.256;2024-01-07T08:02:56;17.10;;;12.10;;
12177;SDS011;6152;48.728;9.256;2024-01-07T08:05:22;18.75;;;11.73;;
12177;SDS011;6152;48.728;9.256;2024-01-07T08:07:48;15.70;;;10.32;;
12177;SDS011;6152;48.728;9.256;2024-01-07T08:10:14;17.58;;;11.35;;
12177;SDS011;6152;48.728;9.256;2024-01-07T08:12:41;17.25;;;10.68;;
12177;SDS011;6152;48.728;9.256;2024-01-07T08:15:07;15.45;;;10.50;;
12177;SDS011;6152;48.728;9.256;2024-01-07T08:17:33;14.73;;;10.13;;
12177;SDS011;6152;48.728;9.256;2024-01-07T08:19:59;15.60;;;10.48;;
12177;SDS011;6152;48.728;9.256;2024-01-07T08:22:26;13.05;;;9.00;;
12177;SDS011;6152;48.728;9.256;2024-01-07T08:24:52;14.57;;;9.45;;
12177;SDS011;6152;48.728;9.256;2024-01-07T08:27:19;13.85;;;9.43;;
12177;SDS011;6152;48.728;9.256;2024-01-07T08:29:45;16.05;;;9.77;;
12177;SDS011;6152;48.728;9.256;2024-01-07T08:32:11;15.50;;;9.00;;
12177;SDS011;6152;48.728;9.256;2024-01-07T08:34:38;14.68;;;9.75;;
12177;SDS011;6152;48.728;9.256;2024-01-07T08:37:04;14.10;;;8.77;;
12177;SDS011;6152;48.728;9.256;2024-01-07T08:39:32;11.30;;;7.93;;
12177;SDS011;6152;48.728;9.256;2024-01-07T08:41:58;13.17;;;8.10;;
12177;SDS011;6152;48.728;9.256;2024-01-07T08:44:24;10.63;;;7.40;;
12177;SDS011;6152;48.728;9.256;2024-01-07T08:46:50;9.50;;;6.72;;
12177;SDS011;6152;48.728;9.256;2024-01-07T08:49:16;10.02;;;7.03;;
12177;SDS011;6152;48.728;9.256;2024-01-07T08:51:42;9.70;;;6.93;;
12177;SDS011;6152;48.728;9.256;2024-01-07T08:54:09;10.15;;;6.45;;
12177;SDS011;6152;48.728;9.256;2024-01-07T08:56:35;10.45;;;5.97;;
12177;SDS011;6152;48.728;9.256;2024-01-07T08:59:01;8.65;;;6.07;;
12177;SDS011;6152;48.728;9.256;2024-01-07T09:01:29;10.02;;;7.03;;
12177;SDS011;6152;48.728;9.256;2024-01-07T09:03:55;9.95;;;6.00;;
12177;SDS011;6152;48.728;9.256;2024-01-07T09:06:21;9.43;;;6.82;;
12177;SDS011;6152;48.728;9.256;2024-01-07T09:08:47;8.63;;;5.97;;
12177;SDS011;6152;48.728;9.256;2024-01-07T09:11:13;8.93;;;6.10;;
12177;SDS011;6152;48.728;9.256;2024-01-07T09:13:41;8.80;;;5.97;;
12177;SDS011;6152;48.728;9.256;2024-01-07T09:16:07;8.95;;;5.60;;
12177;SDS011;6152;48.728;9.256;2024-01-07T09:18:36;9.02;;;6.32;;
12177;SDS011;6152;48.728;9.256;2024-01-07T09:21:02;10.27;;;6.38;;
12177;SDS011;6152;48.728;9.256;2024-01-07T09:23:28;10.48;;;6.07;;
12177;SDS011;6152;48.728;9.256;2024-01-07T09:25:55;10.32;;;6.80;;
12177;SDS011;6152;48.728;9.256;2024-01-07T09:28:21;9.10;;;6.18;;
12177;SDS011;6152;48.728;9.256;2024-01-07T09:30:47;8.70;;;5.72;;
12177;SDS011;6152;48.728;9.256;2024-01-07T09:33:13;8.10;;;6.20;;
12177;SDS011;6152;48.728;9.256;2024-01-07T09:35:40;7.85;;;5.68;;
12177;SDS011;6152;48.728;9.256;2024-01-07T09:38:06;8.07;;;5.28;;
12177;SDS011;6152;48.728;9.256;2024-01-07T09:40:32;7.57;;;5.90;;
12177;SDS011;6152;48.728;9.256;2024-01-07T09:42:58;8.32;;;6.00;;
12177;SDS011;6152;48.728;9.256;2024-01-07T09:45:25;9.15;;;5.40;;
12177;SDS011;6152;48.728;9.256;2024-01-07T09:47:51;7.82;;;5.15;;
12177;SDS011;6152;48.728;9.256;2024-01-07T09:50:17;7.85;;;5.43;;
12177;SDS011;6152;48.728;9.256;2024-01-07T09:52:43;6.88;;;4.95;;
12177;SDS011;6152;48.728;9.256;2024-01-07T09:55:12;6.68;;;5.03;;
12177;SDS011;6152;48.728;9.256;2024-01-07T09:57:46;7.97;;;5.00;;
12177;SDS011;6152;48.728;9.256;2024-01-07T10:00:12;8.23;;;5.25;;
12177;SDS011;6152;48.728;9.256;2024-01-07T10:02:39;8.60;;;5.85;;
12177;SDS011;6152;48.728;9.256;2024-01-07T10:05:06;7.03;;;4.93;;
12177;SDS011;6152;48.728;9.256;2024-01-07T10:07:33;6.50;;;4.70;;
12177;SDS011;6152;48.728;9.256;2024-01-07T10:10:09;5.13;;;3.78;;
12177;SDS011;6152;48.728;9.256;2024-01-07T10:12:39;6.57;;;4.50;;
12177;SDS011;6152;48.728;9.256;2024-01-07T10:15:05;4.60;;;3.60;;
12177;SDS011;6152;48.728;9.256;2024-01-07T10:17:32;6.60;;;4.25;;
12177;SDS011;6152;48.728;9.256;2024-01-07T10:19:58;6.65;;;3.85;;
12177;SDS011;6152;48.728;9.256;2024-01-07T10:22:24;5.97;;;4.13;;
12177;SDS011;6152;48.728;9.256;2024-01-07T10:24:51;6.05;;;4.00;;
12177;SDS011;6152;48.728;9.256;2024-01-07T10:27:17;5.82;;;3.97;;
12177;SDS011;6152;48.728;9.256;2024-01-07T10:29:43;6.35;;;4.28;;
12177;SDS011;6152;48.728;9.256;2024-01-07T10:32:16;6.05;;;3.80;;
12177;SDS011;6152;48.728;9.256;2024-01-07T10:34:45;5.40;;;4.15;;
12177;SDS011;6152;48.728;9.256;2024-01-07T10:37:12;4.43;;;3.30;;
12177;SDS011;6152;48.728;9.256;2024-01-07T10:39:38;4.70;;;3.85;;
12177;SDS011;6152;48.728;9.256;2024-01-07T10:42:05;6.25;;;3.90;;
12177;SDS011;6152;48.728;9.256;2024-01-07T10:44:32;5.28;;;3.90;;
12177;SDS011;6152;48.728;9.256;2024-01-07T10:46:58;6.65;;;3.88;;
12177;SDS011;6152;48.728;9.256;2024-01-07T10:49:28;5.07;;;3.80;;
12177;SDS011;6152;48.728;9.256;2024-01-07T10:51:57;7.03;;;4.22;;
12177;SDS011;6152;48.728;9.256;2024-01-07T10:54:33;6.05;;;4.40;;
12177;SDS011;6152;48.728;9.256;2024-01-07T10:57:12;7.07;;;4.43;;
12177;SDS011;6152;48.728;9.256;2024-01-07T10:59:45;7.22;;;4.55;;
12177;SDS011;6152;48.728;9.256;2024-01-07T11:02:12;9.77;;;5.80;;
12177;SDS011;6152;48.728;9.256;2024-01-07T11:07:19;8.38;;;4.93;;
12177;SDS011;6152;48.728;9.256;2024-01-07T11:10:06;7.65;;;5.05;;
12177;SDS011;6152;48.728;9.256;2024-01-07T11:12:55;7.13;;;4.90;;
12177;SDS011;6152;48.728;9.256;2024-01-07T11:18:21;8.32;;;5.88;;
12177;SDS011;6152;48.728;9.256;2024-01-07T11:20:48;7.60;;;5.22;;
12177;SDS011;6152;48.728;9.256;2024-01-07T11:23:28;7.30;;;4.53;;
12177;SDS011;6152;48.728;9.256;2024-01-07T11:25:58;8.20;;;5.25;;
12177;SDS011;6152;48.728;9.256;2024-01-07T11:31:21;6.55;;;4.88;;
12177;SDS011;6152;48.728;9.256;2024-01-07T11:34:08;6.60;;;4.60;;
12177;SDS011;6152;48.728;9.256;2024-01-07T11:36:38;6.70;;;4.55;;
12177;SDS011;6152;48.728;9.256;2024-01-07T11:39:04;6.45;;;4.13;;
12177;SDS011;6152;48.728;9.256;2024-01-07T11:41:33;6.78;;;4.38;;
12177;SDS011;6152;48.728;9.256;2024-01-07T11:44:00;9.32;;;4.85;;
12177;SDS011;6152;48.728;9.256;2024-01-07T11:46:28;5.80;;;4.00;;
12177;SDS011;6152;48.728;9.256;2024-01-07T11:48:56;5.35;;;4.05;;
12177;SDS011;6152;48.728;9.256;2024-01-07T11:51:27;7.10;;;4.47;;
12177;SDS011;6152;48.728;9.256;2024-01-07T11:53:55;6.90;;;4.63;;
12177;SDS011;6152;48.728;9.256;2024-01-07T11:56:22;6.30;;;4.13;;
12177;SDS011;6152;48.728;9.256;2024-01-07T11:58:51;6.22;;;3.80;;
12177;SDS011;6152;48.728;9.256;2024-01-07T12:01:18;6.45;;;4.68;;
12177;SDS011;6152;48.728;9.256;2024-01-07T12:03:45;6.70;;;4.47;;
12177;SDS011;6152;48.728;9.256;2024-01-07T12:06:11;5.25;;;4.20;;
12177;SDS011;6152;48.728;9.256;2024-01-07T12:08:41;6.38;;;4.90;;
12177;SDS011;6152;48.728;9.256;2024-01-07T12:11:11;6.50;;;4.65;;
12177;SDS011;6152;48.728;9.256;2024-01-07T12:13:39;6.93;;;4.75;;
12177;SDS011;6152;48.728;9.256;2024-01-07T12:16:06;7.38;;;5.07;;
12177;SDS011;6152;48.728;9.256;2024-01-07T12:18:36;5.88;;;4.75;;
12177;SDS011;6152;48.728;9.256;2024-01-07T12:21:03;7.80;;;4.93;;
12177;SDS011;6152;48.728;9.256;2024-01-07T12:23:31;6.18;;;4.53;;
12177;SDS011;6152;48.728;9.256;2024-01-07T12:26:08;6.60;;;4.78;;
12177;SDS011;6152;48.728;9.256;2024-01-07T12:28:36;6.07;;;5.00;;
12177;SDS011;6152;48.728;9.256;2024-01-07T12:31:03;6.95;;;4.75;;
12177;SDS011;6152;48.728;9.256;2024-01-07T12:33:30;6.40;;;5.35;;
12177;SDS011;6152;48.728;9.256;2024-01-07T12:36:00;9.00;;;5.13;;
12177;SDS011;6152;48.728;9.256;2024-01-07T12:38:29;7.15;;;5.05;;
12177;SDS011;6152;48.728;9.256;2024-01-07T12:40:55;8.50;;;6.03;;
12177;SDS011;6152;48.728;9.256;2024-01-07T12:43:22;6.90;;;5.05;;
12177;SDS011;6152;48.728;9.256;2024-01-07T12:45:48;7.03;;;5.07;;
12177;SDS011;6152;48.728;9.256;2024-01-07T12:48:15;6.03;;;4.97;;
12177;SDS011;6152;48.728;9.256;2024-01-07T12:50:41;7.32;;;5.40;;
12177;SDS011;6152;48.728;9.256;2024-01-07T12:53:07;8.45;;;5.72;;
12177;SDS011;6152;48.728;9.256;2024-01-07T12:55:34;7.20;;;5.35;;
12177;SDS011;6152;48.728;9.256;2024-01-07T12:58:00;7.88;;;5.30;;
12177;SDS011;6152;48.728;9.256;2024-01-07T13:00:27;7.05;;;5.68;;
12177;SDS011;6152;48.728;9.256;2024-01-07T13:02:53;8.75;;;5.78;;
12177;SDS011;6152;48.728;9.256;2024-01-07T13:05:20;8.38;;;5.90;;
12177;SDS011;6152;48.728;9.256;2024-01-07T13:07:46;10.43;;;6.38;;
12177;SDS011;6152;48.728;9.256;2024-01-07T13:10:13;8.60;;;6.25;;
12177;SDS011;6152;48.728;9.256;2024-01-07T13:12:39;10.38;;;6.95;;
12177;SDS011;6152;48.728;9.256;2024-01-07T13:15:05;8.88;;;5.95;;
12177;SDS011;6152;48.728;9.256;2024-01-07T13:17:32;9.47;;;6.57;;
12177;SDS011;6152;48.728;9.256;2024-01-07T13:19:58;8.43;;;6.05;;
12177;SDS011;6152;48.728;9.256;2024-01-07T13:22:25;8.25;;;6.18;;
12177;SDS011;6152;48.728;9.256;2024-01-07T13:24:51;8.30;;;5.87;;
12177;SDS011;6152;48.728;9.256;2024-01-07T13:27:19;9.17;;;6.07;;
12177;SDS011;6152;48.728;9.256;2024-01-07T13:29:47;9.43;;;6.38;;
12177;SDS011;6152;48.728;9.256;2024-01-07T13:32:13;7.65;;;5.53;;
12177;SDS011;6152;48.728;9.256;2024-01-07T13:34:43;9.15;;;5.93;;
12177;SDS011;6152;48.728;9.256;2024-01-07T13:37:09;9.15;;;6.60;;
12177;SDS011;6152;48.728;9.256;2024-01-07T13:39:36;8.32;;;6.05;;
12177;SDS011;6152;48.728;9.256;2024-01-07T13:42:03;8.77;;;6.18;;
12177;SDS011;6152;48.728;9.256;2024-01-07T13:44:29;8.47;;;5.87;;
12177;SDS011;6152;48.728;9.256;2024-01-07T13:46:56;9.30;;;5.50;;
12177;SDS011;6152;48.728;9.256;2024-01-07T13:49:22;8.17;;;5.33;;
12177;SDS011;6152;48.728;9.256;2024-01-07T13:51:48;8.80;;;6.37;;
12177;SDS011;6152;48.728;9.256;2024-01-07T13:54:14;11.23;;;6.90;;
12177;SDS011;6152;48.728;9.256;2024-01-07T13:56:41;8.17;;;5.80;;
12177;SDS011;6152;48.728;9.256;2024-01-07T13:59:08;8.77;;;6.20;;
12177;SDS011;6152;48.728;9.256;2024-01-07T14:01:35;8.50;;;5.72;;
12177;SDS011;6152;48.728;9.256;2024-01-07T14:04:02;9.68;;;6.20;;
12177;SDS011;6152;48.728;9.256;2024-01-07T14:06:28;9.57;;;6.40;;
12177;SDS011;6152;48.728;9.256;2024-01-07T14:08:54;9.73;;;6.35;;
12177;SDS011;6152;48.728;9.256;2024-01-07T14:11:20;11.73;;;6.68;;
12177;SDS011;6152;48.728;9.256;2024-01-07T14:13:47;9.68;;;6.75;;
12177;SDS011;6152;48.728;9.256;2024-01-07T14:16:13;10.93;;;7.40;;
12177;SDS011;6152;48.728;9.256;2024-01-07T14:18:39;9.70;;;6.67;;
12177;SDS011;6152;48.728;9.256;2024-01-07T14:21:05;10.73;;;7.67;;
12177;SDS011;6152;48.728;9.256;2024-01-07T14:23:33;10.45;;;7.45;;
12177;SDS011;6152;48.728;9.256;2024-01-07T14:25:59;12.23;;;8.17;;
12177;SDS011;6152;48.728;9.256;2024-01-07T14:28:25;13.03;;;8.10;;
12177;SDS011;6152;48.728;9.256;2024-01-07T14:30:51;12.68;;;8.30;;
12177;SDS011;6152;48.728;9.256;2024-01-07T14:33:17;11.97;;;8.17;;
12177;SDS011;6152;48.728;9.256;2024-01-07T14:35:43;11.83;;;7.60;;
12177;SDS011;6152;48.728;9.256;2024-01-07T14:38:09;13.93;;;8.83;;
12177;SDS011;6152;48.728;9.256;2024-01-07T14:40:36;12.90;;;7.87;;
12177;SDS011;6152;48.728;9.256;2024-01-07T14:43:02;11.43;;;8.40;;
12177;SDS011;6152;48.728;9.256;2024-01-07T14:45:28;13.37;;;8.53;;
12177;SDS011;6152;48.728;9.256;2024-01-07T14:47:54;15.40;;;8.83;;
12177;SDS011;6152;48.728;9.256;2024-01-07T14:50:21;13.03;;;8.53;;
12177;SDS011;6152;48.728;9.256;2024-01-07T14:52:47;12.80;;;8.53;;
12177;SDS011;6152;48.728;9.256;2024-01-07T14:55:13;14.87;;;9.20;;